sensor_id;sensor_type;location;lat;lon;timestamp;P1;durP1;ratioP1;P2;durP2;ratioP2
39778;SDS011;25454;49.878;8.618;2023-04-25T00:01:29;3.57;;;3.27;;
39778;SDS011;25454;49.878;8.618;2023-04-25T00:06:29;3.43;;;3.13;;
39778;SDS011;25454;49.878;8.618;2023-04-25T00:11:31;3.93;;;3.53;;
39778;SDS011;25454;49.878;8.618;2023-04-25T00:16:32;3.70;;;3.40;;
39778;SDS011;25454;49.878;8.618;2023-04-25T00:21:34;4.73;;;4.00;;
39778;SDS011;25454;49.878;8.618;2023-04-25T00:26:35;4.57;;;4.10;;
39778;SDS011;25454;49.878;8.618;2023-04-25T00:31:36;4.53;;;3.93;;
39778;SDS011;25454;49.878;8.618;2023-04-25T00:36:36;6.20;;;4.20;;
39778;SDS011;25454;49.878;8.618;2023-04-25T00:41:38;4.33;;;3.73;;
39778;SDS011;25454;49.878;8.618;2023-04-25T00:46:39;4.40;;;3.80;;
39778;SDS011;25454;49.878;8.618;2023-04-25T00:51:40;4.70;;;4.20;;
39778;SDS011;25454;49.878;8.618;2023-04-25T00:56:53;5.00;;;4.50;;
39778;SDS011;25454;49.878;8.618;2023-04-25T01:01:54;5.03;;;4.50;;
39778;SDS011;25454;49.878;8.618;2023-04-25T01:06:54;6.67;;;4.63;;
39778;SDS011;25454;49.878;8.618;2023-04-25T01:11:55;5.00;;;4.60;;
39778;SDS011;25454;49.878;8.618;2023-04-25T01:16:57;5.10;;;4.70;;
39778;SDS011;25454;49.878;8.618;2023-04-25T01:21:58;5.27;;;4.53;;
39778;SDS011;25454;49.878;8.618;2023-04-25T01:27:00;4.80;;;4.40;;
39778;SDS011;25454;49.878;8.618;2023-04-25T01:32:02;5.73;;;5.23;;
39778;SDS011;25454;49.878;8.618;2023-04-25T01:37:03;5.00;;;4.60;;
39778;SDS011;25454;49.878;8.618;2023-04-25T01:42:03;5.33;;;4.80;;
39778;SDS011;25454;49.878;8.618;2023-04-25T01:47:04;5.93;;;5.20;;
39778;SDS011;25454;49.878;8.618;2023-04-25T01:52:05;5.30;;;4.80;;
39778;SDS011;25454;49.878;8.618;2023-04-25T01:57:05;5.93;;;5.30;;
39778;SDS011;25454;49.878;8.618;2023-04-25T02:02:06;5.20;;;4.77;;
39778;SDS011;25454;49.878;8.618;2023-04-25T02:07:07;6.17;;;5.57;;
39778;SDS011;25454;49.878;8.618;2023-04-25T02:12:09;5.37;;;4.87;;
39778;SDS011;25454;49.878;8.618;2023-04-25T02:17:10;5.70;;;5.20;;
39778;SDS011;25454;49.878;8.618;2023-04-25T02:22:12;6.17;;;5.57;;
39778;SDS011;25454;49.878;8.618;2023-04-25T02:27:13;5.40;;;4.90;;
39778;SDS011;25454;49.878;8.618;2023-04-25T02:32:13;7.60;;;5.40;;
39778;SDS011;25454;49.878;8.618;2023-04-25T02:37:14;6.43;;;5.83;;
39778;SDS011;25454;49.878;8.618;2023-04-25T02:42:15;6.87;;;5.77;;
39778;SDS011;25454;49.878;8.618;2023-04-25T02:47:15;6.50;;;5.67;;
39778;SDS011;25454;49.878;8.618;2023-04-25T02:52:16;7.43;;;6.07;;
39778;SDS011;25454;49.878;8.618;2023-04-25T02:57:17;7.67;;;6.70;;
39778;SDS011;25454;49.878;8.618;2023-04-25T03:02:17;6.63;;;6.03;;
39778;SDS011;25454;49.878;8.618;2023-04-25T03:07:18;7.00;;;6.30;;
39778;SDS011;25454;49.878;8.618;2023-04-25T03:12:19;7.37;;;6.63;;
39778;SDS011;25454;49.878;8.618;2023-04-25T03:17:19;6.90;;;6.20;;
39778;SDS011;25454;49.878;8.618;2023-04-25T03:22:20;7.83;;;7.03;;
39778;SDS011;25454;49.878;8.618;2023-04-25T03:27:21;6.80;;;6.17;;
39778;SDS011;25454;49.878;8.618;2023-04-25T03:32:21;9.27;;;7.57;;
39778;SDS011;25454;49.878;8.618;2023-04-25T03:37:22;8.00;;;7.20;;
39778;SDS011;25454;49.878;8.618;2023-04-25T03:42:23;8.13;;;7.33;;
39778;SDS011;25454;49.878;8.618;2023-04-25T03:47:23;8.63;;;7.70;;
39778;SDS011;25454;49.878;8.618;2023-04-25T03:52:24;8.70;;;7.80;;
39778;SDS011;25454;49.878;8.618;2023-04-25T03:57:25;9.97;;;7.93;;
39778;SDS011;25454;49.878;8.618;2023-04-25T04:02:25;8.83;;;7.17;;
39778;SDS011;25454;49.878;8.618;2023-04-25T04:07:27;10.27;;;8.53;;
39778;SDS011;25454;49.878;8.618;2023-04-25T04:12:28;9.30;;;8.30;;
39778;SDS011;25454;49.878;8.618;2023-04-25T04:17:29;9.77;;;8.77;;
39778;SDS011;25454;49.878;8.618;2023-04-25T04:22:30;10.13;;;9.07;;
39778;SDS011;25454;49.878;8.618;2023-04-25T04:27:31;10.40;;;8.30;;
39778;SDS011;25454;49.878;8.618;2023-04-25T04:32:32;9.30;;;8.40;;
39778;SDS011;25454;49.878;8.618;2023-04-25T04:37:34;9.67;;;8.67;;
39778;SDS011;25454;49.878;8.618;2023-04-25T04:42:35;9.33;;;8.33;;
39778;SDS011;25454;49.878;8.618;2023-04-25T04:47:36;8.30;;;7.50;;
39778;SDS011;25454;49.878;8.618;2023-04-25T04:52:40;9.73;;;8.63;;
39778;SDS011;25454;49.878;8.618;2023-04-25T04:57:40;9.97;;;8.20;;
39778;SDS011;25454;49.878;8.618;2023-04-25T05:02:41;9.97;;;8.57;;
39778;SDS011;25454;49.878;8.618;2023-04-25T05:07:42;13.97;;;8.13;;
39778;SDS011;25454;49.878;8.618;2023-04-25T05:12:42;13.47;;;7.60;;
39778;SDS011;25454;49.878;8.618;2023-04-25T05:17:43;12.60;;;6.37;;
39778;SDS011;25454;49.878;8.618;2023-04-25T05:22:46;12.40;;;6.50;;
39778;SDS011;25454;49.878;8.618;2023-04-25T05:27:47;13.33;;;6.70;;
39778;SDS011;25454;49.878;8.618;2023-04-25T05:32:48;11.23;;;6.67;;
39778;SDS011;25454;49.878;8.618;2023-04-25T05:37:48;12.50;;;7.13;;
39778;SDS011;25454;49.878;8.618;2023-04-25T05:42:49;11.10;;;6.57;;
39778;SDS011;25454;49.878;8.618;2023-04-25T05:47:50;11.83;;;6.70;;
39778;SDS011;25454;49.878;8.618;2023-04-25T05:52:51;12.10;;;7.13;;
39778;SDS011;25454;49.878;8.618;2023-04-25T05:57:55;10.00;;;6.10;;
39778;SDS011;25454;49.878;8.618;2023-04-25T06:02:55;12.03;;;6.30;;
39778;SDS011;25454;49.878;8.618;2023-04-25T06:07:56;10.13;;;5.57;;
39778;SDS011;25454;49.878;8.618;2023-04-25T06:12:57;11.10;;;6.00;;
39778;SDS011;25454;49.878;8.618;2023-04-25T06:17:58;10.70;;;5.87;;
39778;SDS011;25454;49.878;8.618;2023-04-25T06:22:58;14.77;;;6.10;;
39778;SDS011;25454;49.878;8.618;2023-04-25T06:27:59;9.10;;;5.60;;
39778;SDS011;25454;49.878;8.618;2023-04-25T06:33:00;12.20;;;5.27;;
39778;SDS011;25454;49.878;8.618;2023-04-25T06:38:01;13.97;;;5.20;;
39778;SDS011;25454;49.878;8.618;2023-04-25T06:43:12;10.53;;;4.93;;
39778;SDS011;25454;49.878;8.618;2023-04-25T06:48:13;8.40;;;3.90;;
39778;SDS011;25454;49.878;8.618;2023-04-25T06:53:13;6.30;;;3.40;;
39778;SDS011;25454;49.878;8.618;2023-04-25T06:58:14;8.90;;;3.87;;
39778;SDS011;25454;49.878;8.618;2023-04-25T07:03:17;9.17;;;4.10;;
39778;SDS011;25454;49.878;8.618;2023-04-25T07:08:28;6.77;;;3.40;;
39778;SDS011;25454;49.878;8.618;2023-04-25T07:13:29;11.87;;;3.83;;
39778;SDS011;25454;49.878;8.618;2023-04-25T07:18:30;14.80;;;4.90;;
39778;SDS011;25454;49.878;8.618;2023-04-25T07:23:31;12.17;;;4.70;;
39778;SDS011;25454;49.878;8.618;2023-04-25T07:28:32;7.70;;;4.40;;
39778;SDS011;25454;49.878;8.618;2023-04-25T07:33:33;6.37;;;3.83;;
39778;SDS011;25454;49.878;8.618;2023-04-25T07:38:34;12.27;;;3.93;;
39778;SDS011;25454;49.878;8.618;2023-04-25T07:43:35;6.93;;;3.93;;
39778;SDS011;25454;49.878;8.618;2023-04-25T07:48:35;7.80;;;3.67;;
39778;SDS011;25454;49.878;8.618;2023-04-25T07:53:37;7.43;;;3.83;;
39778;SDS011;25454;49.878;8.618;2023-04-25T07:58:38;6.10;;;2.80;;
39778;SDS011;25454;49.878;8.618;2023-04-25T08:03:38;7.47;;;2.70;;
39778;SDS011;25454;49.878;8.618;2023-04-25T08:08:39;9.47;;;3.00;;
39778;SDS011;25454;49.878;8.618;2023-04-25T08:13:40;6.77;;;2.50;;
39778;SDS011;25454;49.878;8.618;2023-04-25T08:18:41;5.23;;;2.27;;
39778;SDS011;25454;49.878;8.618;2023-04-25T08:23:44;9.07;;;2.60;;
39778;SDS011;25454;49.878;8.618;2023-04-25T08:28:45;7.40;;;2.80;;
39778;SDS011;25454;49.878;8.618;2023-04-25T08:33:46;11.13;;;2.97;;
39778;SDS011;25454;49.878;8.618;2023-04-25T08:38:47;8.47;;;2.97;;
39778;SDS011;25454;49.878;8.618;2023-04-25T08:43:48;5.53;;;2.40;;
39778;SDS011;25454;49.878;8.618;2023-04-25T08:48:49;10.70;;;3.27;;
39778;SDS011;25454;49.878;8.618;2023-04-25T08:53:52;6.67;;;2.77;;
39778;SDS011;25454;49.878;8.618;2023-04-25T08:58:53;6.03;;;3.00;;
39778;SDS011;25454;49.878;8.618;2023-04-25T09:03:56;5.20;;;2.53;;
39778;SDS011;25454;49.878;8.618;2023-04-25T09:09:04;5.27;;;2.73;;
39778;SDS011;25454;49.878;8.618;2023-04-25T09:14:19;5.33;;;2.43;;
39778;SDS011;25454;49.878;8.618;2023-04-25T09:19:21;4.80;;;2.27;;
39778;SDS011;25454;49.878;8.618;2023-04-25T09:29:40;4.00;;;2.27;;
39778;SDS011;25454;49.878;8.618;2023-04-25T09:34:42;5.93;;;2.50;;
39778;SDS011;25454;49.878;8.618;2023-04-25T09:39:45;4.70;;;2.30;;
39778;SDS011;25454;49.878;8.618;2023-04-25T09:44:47;4.17;;;2.60;;
39778;SDS011;25454;49.878;8.618;2023-04-25T09:49:47;3.83;;;2.30;;
39778;SDS011;25454;49.878;8.618;2023-04-25T09:54:50;4.77;;;2.70;;
39778;SDS011;25454;49.878;8.618;2023-04-25T09:59:52;8.20;;;2.70;;
39778;SDS011;25454;49.878;8.618;2023-04-25T10:04:55;5.20;;;2.20;;
39778;SDS011;25454;49.878;8.618;2023-04-25T10:10:05;3.77;;;2.27;;
39778;SDS011;25454;49.878;8.618;2023-04-25T10:15:06;4.20;;;2.37;;
39778;SDS011;25454;49.878;8.618;2023-04-25T10:20:08;4.47;;;2.23;;
39778;SDS011;25454;49.878;8.618;2023-04-25T10:25:10;6.23;;;3.20;;
39778;SDS011;25454;49.878;8.618;2023-04-25T10:30:15;5.20;;;3.60;;
39778;SDS011;25454;49.878;8.618;2023-04-25T10:35:16;5.03;;;3.33;;
39778;SDS011;25454;49.878;8.618;2023-04-25T10:40:21;6.70;;;3.13;;
39778;SDS011;25454;49.878;8.618;2023-04-25T10:45:22;8.40;;;3.20;;
39778;SDS011;25454;49.878;8.618;2023-04-25T10:50:23;6.23;;;3.37;;
39778;SDS011;25454;49.878;8.618;2023-04-25T10:55:51;4.33;;;2.90;;
39778;SDS011;25454;49.878;8.618;2023-04-25T11:00:53;6.03;;;3.30;;
39778;SDS011;25454;49.878;8.618;2023-04-25T11:05:53;7.17;;;3.57;;
39778;SDS011;25454;49.878;8.618;2023-04-25T11:10:57;6.67;;;3.63;;
39778;SDS011;25454;49.878;8.618;2023-04-25T11:15:59;5.67;;;3.17;;
39778;SDS011;25454;49.878;8.618;2023-04-25T11:21:00;5.37;;;3.40;;
39778;SDS011;25454;49.878;8.618;2023-04-25T11:26:03;3.50;;;2.67;;
39778;SDS011;25454;49.878;8.618;2023-04-25T11:31:04;6.23;;;3.30;;
39778;SDS011;25454;49.878;8.618;2023-04-25T11:36:04;7.70;;;3.50;;
39778;SDS011;25454;49.878;8.618;2023-04-25T11:41:05;6.30;;;3.40;;
39778;SDS011;25454;49.878;8.618;2023-04-25T11:46:06;7.43;;;3.80;;
39778;SDS011;25454;49.878;8.618;2023-04-25T11:51:07;7.07;;;3.83;;
39778;SDS011;25454;49.878;8.618;2023-04-25T11:56:09;21.00;;;4.00;;
39778;SDS011;25454;49.878;8.618;2023-04-25T12:01:11;7.10;;;3.10;;
39778;SDS011;25454;49.878;8.618;2023-04-25T12:06:15;12.63;;;3.40;;
39778;SDS011;25454;49.878;8.618;2023-04-25T12:11:20;8.97;;;3.87;;
39778;SDS011;25454;49.878;8.618;2023-04-25T12:16:21;9.63;;;3.77;;
39778;SDS011;25454;49.878;8.618;2023-04-25T12:21:22;7.23;;;3.27;;
39778;SDS011;25454;49.878;8.618;2023-04-25T12:26:23;7.77;;;3.33;;
39778;SDS011;25454;49.878;8.618;2023-04-25T12:31:25;10.43;;;2.90;;
39778;SDS011;25454;49.878;8.618;2023-04-25T12:36:26;12.93;;;3.53;;
39778;SDS011;25454;49.878;8.618;2023-04-25T12:41:26;8.57;;;3.40;;
39778;SDS011;25454;49.878;8.618;2023-04-25T12:46:27;6.27;;;3.07;;
39778;SDS011;25454;49.878;8.618;2023-04-25T12:51:28;6.07;;;2.77;;
39778;SDS011;25454;49.878;8.618;2023-04-25T12:56:28;7.87;;;2.77;;
39778;SDS011;25454;49.878;8.618;2023-04-25T13:01:30;8.30;;;3.10;;
39778;SDS011;25454;49.878;8.618;2023-04-25T13:06:30;4.73;;;2.70;;
39778;SDS011;25454;49.878;8.618;2023-04-25T13:11:34;5.73;;;2.33;;
39778;SDS011;25454;49.878;8.618;2023-04-25T13:16:35;7.63;;;2.57;;
39778;SDS011;25454;49.878;8.618;2023-04-25T13:21:36;7.07;;;2.60;;
39778;SDS011;25454;49.878;8.618;2023-04-25T13:26:37;5.10;;;2.00;;
39778;SDS011;25454;49.878;8.618;2023-04-25T13:31:40;9.70;;;2.90;;
39778;SDS011;25454;49.878;8.618;2023-04-25T13:36:41;5.53;;;2.70;;
39778;SDS011;25454;49.878;8.618;2023-04-25T13:41:42;10.37;;;2.63;;
39778;SDS011;25454;49.878;8.618;2023-04-25T13:46:42;4.57;;;2.47;;
39778;SDS011;25454;49.878;8.618;2023-04-25T13:51:43;6.10;;;2.13;;
39778;SDS011;25454;49.878;8.618;2023-04-25T13:56:44;4.40;;;2.60;;
39778;SDS011;25454;49.878;8.618;2023-04-25T14:01:45;6.17;;;2.47;;
39778;SDS011;25454;49.878;8.618;2023-04-25T14:06:46;6.30;;;2.33;;
39778;SDS011;25454;49.878;8.618;2023-04-25T14:11:46;4.47;;;2.30;;
39778;SDS011;25454;49.878;8.618;2023-04-25T14:16:48;5.87;;;2.27;;
39778;SDS011;25454;49.878;8.618;2023-04-25T14:21:48;7.00;;;2.33;;
39778;SDS011;25454;49.878;8.618;2023-04-25T14:26:49;4.07;;;2.13;;
39778;SDS011;25454;49.878;8.618;2023-04-25T14:31:50;4.70;;;1.93;;
39778;SDS011;25454;49.878;8.618;2023-04-25T14:36:51;6.77;;;2.00;;
39778;SDS011;25454;49.878;8.618;2023-04-25T14:41:52;5.83;;;2.30;;
39778;SDS011;25454;49.878;8.618;2023-04-25T14:46:52;6.20;;;2.43;;
39778;SDS011;25454;49.878;8.618;2023-04-25T14:51:53;6.00;;;2.80;;
39778;SDS011;25454;49.878;8.618;2023-04-25T14:56:54;6.23;;;2.27;;
39778;SDS011;25454;49.878;8.618;2023-04-25T15:01:54;9.17;;;2.63;;
39778;SDS011;25454;49.878;8.618;2023-04-25T15:06:56;5.20;;;2.47;;
39778;SDS011;25454;49.878;8.618;2023-04-25T15:11:57;5.20;;;2.60;;
39778;SDS011;25454;49.878;8.618;2023-04-25T15:16:58;6.43;;;2.33;;
39778;SDS011;25454;49.878;8.618;2023-04-25T15:21:59;5.67;;;2.60;;
39778;SDS011;25454;49.878;8.618;2023-04-25T15:27:02;6.13;;;2.40;;
39778;SDS011;25454;49.878;8.618;2023-04-25T15:32:04;5.27;;;2.40;;
39778;SDS011;25454;49.878;8.618;2023-04-25T15:37:06;8.77;;;2.23;;
39778;SDS011;25454;49.878;8.618;2023-04-25T15:42:07;9.47;;;2.50;;
39778;SDS011;25454;49.878;8.618;2023-04-25T15:47:08;9.37;;;2.50;;
39778;SDS011;25454;49.878;8.618;2023-04-25T15:52:08;5.37;;;2.00;;
39778;SDS011;25454;49.878;8.618;2023-04-25T15:57:09;6.87;;;2.50;;
39778;SDS011;25454;49.878;8.618;2023-04-25T16:02:12;7.37;;;2.20;;
39778;SDS011;25454;49.878;8.618;2023-04-25T16:07:16;6.20;;;2.50;;
39778;SDS011;25454;49.878;8.618;2023-04-25T16:12:20;8.63;;;2.23;;
39778;SDS011;25454;49.878;8.618;2023-04-25T16:17:21;6.03;;;1.80;;
39778;SDS011;25454;49.878;8.618;2023-04-25T16:22:21;4.10;;;2.20;;
39778;SDS011;25454;49.878;8.618;2023-04-25T16:27:22;4.50;;;1.90;;
39778;SDS011;25454;49.878;8.618;2023-04-25T16:32:22;5.90;;;2.00;;
39778;SDS011;25454;49.878;8.618;2023-04-25T16:37:23;7.10;;;1.80;;
39778;SDS011;25454;49.878;8.618;2023-04-25T16:42:24;4.67;;;2.00;;
39778;SDS011;25454;49.878;8.618;2023-04-25T16:47:24;5.47;;;2.00;;
39778;SDS011;25454;49.878;8.618;2023-04-25T16:52:32;4.03;;;1.93;;
39778;SDS011;25454;49.878;8.618;2023-04-25T16:57:38;5.43;;;1.80;;
39778;SDS011;25454;49.878;8.618;2023-04-25T17:02:39;6.63;;;1.80;;
39778;SDS011;25454;49.878;8.618;2023-04-25T17:07:40;5.57;;;1.83;;
39778;SDS011;25454;49.878;8.618;2023-04-25T17:12:40;7.50;;;2.20;;
39778;SDS011;25454;49.878;8.618;2023-04-25T17:17:42;6.10;;;1.90;;
39778;SDS011;25454;49.878;8.618;2023-04-25T17:22:42;7.83;;;2.03;;
39778;SDS011;25454;49.878;8.618;2023-04-25T17:27:43;8.20;;;2.17;;
39778;SDS011;25454;49.878;8.618;2023-04-25T17:32:44;6.50;;;2.07;;
39778;SDS011;25454;49.878;8.618;2023-04-25T17:37:44;5.00;;;1.80;;
39778;SDS011;25454;49.878;8.618;2023-04-25T17:42:45;5.47;;;1.80;;
39778;SDS011;25454;49.878;8.618;2023-04-25T17:47:46;7.80;;;1.70;;
39778;SDS011;25454;49.878;8.618;2023-04-25T17:52:46;4.43;;;1.70;;
39778;SDS011;25454;49.878;8.618;2023-04-25T17:57:48;6.47;;;1.93;;
39778;SDS011;25454;49.878;8.618;2023-04-25T18:02:48;6.57;;;1.60;;
39778;SDS011;25454;49.878;8.618;2023-04-25T18:07:50;6.10;;;1.70;;
39778;SDS011;25454;49.878;8.618;2023-04-25T18:12:51;6.27;;;2.00;;
39778;SDS011;25454;49.878;8.618;2023-04-25T18:17:52;8.17;;;2.00;;
39778;SDS011;25454;49.878;8.618;2023-04-25T18:22:52;4.93;;;2.07;;
39778;SDS011;25454;49.878;8.618;2023-04-25T18:27:53;7.03;;;2.43;;
39778;SDS011;25454;49.878;8.618;2023-04-25T18:32:54;6.90;;;2.33;;
39778;SDS011;25454;49.878;8.618;2023-04-25T18:37:56;5.77;;;2.20;;
39778;SDS011;25454;49.878;8.618;2023-04-25T18:42:56;6.57;;;2.37;;
39778;SDS011;25454;49.878;8.618;2023-04-25T18:47:57;6.00;;;2.20;;
39778;SDS011;25454;49.878;8.618;2023-04-25T18:52:58;5.27;;;1.80;;
39778;SDS011;25454;49.878;8.618;2023-04-25T18:58:03;6.50;;;2.10;;
39778;SDS011;25454;49.878;8.618;2023-04-25T19:03:06;4.90;;;1.80;;
39778;SDS011;25454;49.878;8.618;2023-04-25T19:08:07;3.43;;;1.47;;
39778;SDS011;25454;49.878;8.618;2023-04-25T19:13:08;6.30;;;2.00;;
39778;SDS011;25454;49.878;8.618;2023-04-25T19:18:08;4.60;;;2.13;;
39778;SDS011;25454;49.878;8.618;2023-04-25T19:23:09;6.07;;;2.10;;
39778;SDS011;25454;49.878;8.618;2023-04-25T19:28:10;7.27;;;2.40;;
39778;SDS011;25454;49.878;8.618;2023-04-25T19:33:30;5.97;;;2.20;;
39778;SDS011;25454;49.878;8.618;2023-04-25T19:38:55;4.47;;;2.40;;
39778;SDS011;25454;49.878;8.618;2023-04-25T19:44:04;6.23;;;2.13;;
39778;SDS011;25454;49.878;8.618;2023-04-25T19:49:06;7.63;;;2.63;;
39778;SDS011;25454;49.878;8.618;2023-04-25T19:54:06;5.57;;;2.10;;
39778;SDS011;25454;49.878;8.618;2023-04-25T19:59:07;5.53;;;2.67;;
39778;SDS011;25454;49.878;8.618;2023-04-25T20:04:15;9.47;;;2.63;;
39778;SDS011;25454;49.878;8.618;2023-04-25T20:09:29;6.83;;;2.57;;
39778;SDS011;25454;49.878;8.618;2023-04-25T20:14:30;5.97;;;2.60;;
39778;SDS011;25454;49.878;8.618;2023-04-25T20:19:31;6.63;;;2.20;;
39778;SDS011;25454;49.878;8.618;2023-04-25T20:24:32;3.60;;;2.10;;
39778;SDS011;25454;49.878;8.618;2023-04-25T20:29:33;5.73;;;2.27;;
39778;SDS011;25454;49.878;8.618;2023-04-25T20:34:34;6.17;;;2.50;;
39778;SDS011;25454;49.878;8.618;2023-04-25T20:39:35;4.80;;;2.30;;
39778;SDS011;25454;49.878;8.618;2023-04-25T20:44:35;5.87;;;2.40;;
39778;SDS011;25454;49.878;8.618;2023-04-25T20:49:39;3.77;;;2.53;;
39778;SDS011;25454;49.878;8.618;2023-04-25T20:54:40;5.17;;;2.37;;
39778;SDS011;25454;49.878;8.618;2023-04-25T20:59:40;4.83;;;2.83;;
39778;SDS011;25454;49.878;8.618;2023-04-25T21:04:41;4.97;;;3.00;;
39778;SDS011;25454;49.878;8.618;2023-04-25T21:09:45;7.13;;;2.80;;
39778;SDS011;25454;49.878;8.618;2023-04-25T21:14:46;4.50;;;2.10;;
39778;SDS011;25454;49.878;8.618;2023-04-25T21:19:47;3.80;;;1.97;;
39778;SDS011;25454;49.878;8.618;2023-04-25T21:24:48;4.63;;;2.20;;
39778;SDS011;25454;49.878;8.618;2023-04-25T21:29:49;5.37;;;2.17;;
39778;SDS011;25454;49.878;8.618;2023-04-25T21:34:50;6.33;;;2.40;;
39778;SDS011;25454;49.878;8.618;2023-04-25T21:39:53;4.40;;;2.43;;
39778;SDS011;25454;49.878;8.618;2023-04-25T21:44:54;5.43;;;2.37;;
39778;SDS011;25454;49.878;8.618;2023-04-25T21:49:55;3.77;;;2.57;;
39778;SDS011;25454;49.878;8.618;2023-04-25T21:54:55;4.90;;;2.83;;
39778;SDS011;25454;49.878;8.618;2023-04-25T21:59:56;7.50;;;3.27;;
39778;SDS011;25454;49.878;8.618;2023-04-25T22:04:58;6.87;;;3.00;;
39778;SDS011;25454;49.878;8.618;2023-04-25T22:09:59;4.73;;;2.80;;
39778;SDS011;25454;49.878;8.618;2023-04-25T22:15:00;4.17;;;2.50;;
39778;SDS011;25454;49.878;8.618;2023-04-25T22:20:03;4.87;;;2.70;;
39778;SDS011;25454;49.878;8.618;2023-04-25T22:25:09;4.40;;;2.17;;
39778;SDS011;25454;49.878;8.618;2023-04-25T22:30:13;4.57;;;2.43;;
39778;SDS011;25454;49.878;8.618;2023-04-25T22:35:14;7.03;;;2.53;;
39778;SDS011;25454;49.878;8.618;2023-04-25T22:40:14;5.77;;;2.40;;
39778;SDS011;25454;49.878;8.618;2023-04-25T22:45:15;4.37;;;2.50;;
39778;SDS011;25454;49.878;8.618;2023-04-25T22:50:16;5.27;;;2.67;;
39778;SDS011;25454;49.878;8.618;2023-04-25T22:55:16;5.70;;;2.60;;
39778;SDS011;25454;49.878;8.618;2023-04-25T23:00:17;7.50;;;2.57;;
39778;SDS011;25454;49.878;8.618;2023-04-25T23:05:19;3.33;;;2.10;;
39778;SDS011;25454;49.878;8.618;2023-04-25T23:10:19;9.00;;;2.70;;
39778;SDS011;25454;49.878;8.618;2023-04-25T23:15:20;4.03;;;2.50;;
39778;SDS011;25454;49.878;8.618;2023-04-25T23:20:20;4.80;;;2.60;;
39778;SDS011;25454;49.878;8.618;2023-04-25T23:25:22;4.40;;;2.77;;
39778;SDS011;25454;49.878;8.618;2023-04-25T23:30:23;4.17;;;3.10;;
39778;SDS011;25454;49.878;8.618;2023-04-25T23:35:24;7.20;;;3.57;;
39778;SDS011;25454;49.878;8.618;2023-04-25T23:40:26;5.43;;;3.47;;
39778;SDS011;25454;49.878;8.618;2023-04-25T23:45:27;7.83;;;3.97;;
39778;SDS011;25454;49.878;8.618;2023-04-25T23:50:29;8.43;;;3.90;;
39778;SDS011;25454;49.878;8.618;2023-04-25T23:55:30;7.73;;;4.23;;
